KFLL

Fort Lauderdale Hollywood International Airport

Airport
ICAO code
KFLL
IATA Code
FLL
Summary
ICAO Region
NAM
ICAO Territory
Location

Dania Beach, Florida

Serving
Fort Lauderdale
Elevation
9 ft
Coordinates
26° 4' 21" N , 80° 9' 10" W
KCC
Airport RE
Engineered Materials Arresting System
Airport WX
Tropical Revolving Storm
Metar
KFLL 282253Z 14010KT 10SM FEW034 BKN250 24/19 A3012 RMK AO2 SLP199 T02440189 $

International airport 3 nm southwest of downtown Fort Lauderdale, Florida, USA.

Airport map

Aerial View

SKYbrary Partners:

Safety knowledge contributed by: